La Riviere, Canada
Current Conditions -  °F | °C
As of 9:15 AM on Saturday 20 Dec 2014 (Local Time) from KD55 Reporting Station
Haze Haze  
Wind Chill: 16°   Ceiling: 100
Heat Index: 23°   Visibility: 0.75mi
Dew Point: 23°   Wind: 6mph
Humidity: 100%   Direction: 230°SW
Pressure: 29.93"   Gusts: NA
Location:  49.24°N, 98.68°W
Report Text: KD55 201515Z AUTO 23005KT 3/4SM BR OVC001 M05/M05 A2993 RMK AO2
Loading
Personal Weather Stations






























Interactive Weather Map New forecast layout! Learn more

10-Day Weather Forecast

Advertisements
Track Severe Weather on mobile